Time,TemperatureF,DewpointF,PressureIn,WindDirection,WindDirectionDegrees,WindSpeedMPH,WindSpeedGustMPH,Humidity,HourlyPrecipIn,Conditions,Clouds,dailyrainin,SoftwareType,DateUTC
2013-03-23 00:00:00,32.5,23.6,29.76,NNE,15,0.3,0.7,69,0.00,,,0.00,WUHU216HW,2013-03-23 05:00:00,
2013-03-23 00:05:00,32.7,24.1,29.76,North,357,0.4,1.1,70,0.00,,,0.00,WUHU216HW,2013-03-23 05:05:00,
2013-03-23 00:10:00,32.7,24.1,29.77,NE,45,0.2,1.1,70,0.00,,,0.00,WUHU216HW,2013-03-23 05:10:00,
2013-03-23 00:15:00,32.7,24.4,29.77,NE,45,1.8,2.7,71,0.00,,,0.00,WUHU216HW,2013-03-23 05:15:00,
2013-03-23 00:20:00,32.7,24.5,29.77,NNE,23,0.4,2.7,71,0.00,,,0.00,WUHU216HW,2013-03-23 05:20:00,
2013-03-23 00:25:00,32.7,24.5,29.77,NNE,13,0.5,1.8,71,0.00,,,0.00,WUHU216HW,2013-03-23 05:25:00,
2013-03-23 00:30:00,32.8,24.5,29.77,NNE,23,1.8,1.8,71,0.00,,,0.00,WUHU216HW,2013-03-23 05:30:00,
2013-03-23 00:35:00,32.8,24.5,29.77,NE,51,0.3,1.8,71,0.00,,,0.00,WUHU216HW,2013-03-23 05:35:00,
2013-03-23 00:40:00,32.8,24.5,29.77,NNE,23,1.1,1.8,71,0.00,,,0.00,WUHU216HW,2013-03-23 05:40:00,
2013-03-23 00:45:00,32.8,24.5,29.77,NNE,23,1.8,1.8,71,0.00,,,0.00,WUHU216HW,2013-03-23 05:45:00,
2013-03-23 00:50:00,32.8,24.6,29.78,NE,34,0.9,1.8,71,0.00,,,0.00,WUHU216HW,2013-03-23 05:50:00,
2013-03-23 00:55:00,32.9,24.6,29.77,NNE,14,0.6,1.8,71,0.00,,,0.00,WUHU216HW,2013-03-23 05:55:00,
2013-03-23 01:00:00,32.8,24.5,29.77,North,0,0.2,1.1,71,0.00,,,0.00,WUHU216HW,2013-03-23 06:00:00,
2013-03-23 01:05:00,32.8,24.5,29.77,NNE,23,0.4,0.9,71,0.00,,,0.00,WUHU216HW,2013-03-23 06:05:00,
2013-03-23 01:10:00,32.6,24.3,29.77,North,3,0.8,1.1,71,0.00,,,0.00,WUHU216HW,2013-03-23 06:10:00,
2013-03-23 01:15:00,32.6,24.3,29.77,NNW,338,0.0,1.1,71,0.00,,,0.00,WUHU216HW,2013-03-23 06:15:00,
2013-03-23 01:20:00,32.4,24.2,29.77,NNW,338,0.0,0.4,71,0.00,,,0.00,WUHU216HW,2013-03-23 06:20:00,
2013-03-23 01:25:00,32.2,24.0,29.77,North,0,0.4,0.7,71,0.00,,,0.00,WUHU216HW,2013-03-23 06:25:00,
2013-03-23 01:30:00,32.2,24.0,29.78,NNW,343,0.3,0.9,71,0.00,,,0.00,WUHU216HW,2013-03-23 06:30:00,
2013-03-23 01:35:00,32.2,24.0,29.78,NNW,338,0.0,1.1,71,0.00,,,0.00,WUHU216HW,2013-03-23 06:35:00,
2013-03-23 01:40:00,32.3,24.0,29.78,NW,315,0.4,1.1,71,0.00,,,0.00,WUHU216HW,2013-03-23 06:40:00,
2013-03-23 01:45:00,32.3,24.3,29.78,SW,225,0.2,0.4,72,0.00,,,0.00,WUHU216HW,2013-03-23 06:45:00,
2013-03-23 01:50:00,32.3,24.0,29.78,North,0,0.4,0.4,71,0.00,,,0.00,WUHU216HW,2013-03-23 06:50:00,
2013-03-23 01:55:00,32.3,24.0,29.78,NNE,27,0.3,0.4,71,0.00,,,0.00,WUHU216HW,2013-03-23 06:55:00,
2013-03-23 02:00:00,32.3,24.0,29.77,NNE,18,0.5,0.9,71,0.00,,,0.00,WUHU216HW,2013-03-23 07:00:00,
2013-03-23 02:05:00,32.3,24.0,29.78,North,0,0.9,0.9,71,0.00,,,0.00,WUHU216HW,2013-03-23 07:05:00,
2013-03-23 02:10:00,32.3,24.0,29.77,NNW,338,0.7,1.3,71,0.00,,,0.00,WUHU216HW,2013-03-23 07:10:00,
2013-03-23 02:15:00,32.1,23.8,29.77,North,3,0.5,1.3,71,0.00,,,0.00,WUHU216HW,2013-03-23 07:15:00,
2013-03-23 02:20:00,32.1,23.8,29.77,NNE,21,1.0,1.8,71,0.00,,,0.00,WUHU216HW,2013-03-23 07:20:00,
2013-03-23 02:25:00,32.1,23.8,29.77,NNE,30,0.3,1.8,71,0.00,,,0.00,WUHU216HW,2013-03-23 07:25:00,
2013-03-23 02:30:00,32.0,24.1,29.77,North,4,0.4,1.1,72,0.00,,,0.00,WUHU216HW,2013-03-23 07:30:00,
2013-03-23 02:35:00,31.6,23.4,29.77,North,0,0.4,1.1,71,0.00,,,0.00,WUHU216HW,2013-03-23 07:35:00,
2013-03-23 02:40:00,31.6,23.7,29.77,NNE,13,0.2,0.7,72,0.00,,,0.00,WUHU216HW,2013-03-23 07:40:00,
2013-03-23 02:45:00,31.2,23.3,29.77,NNE,23,0.4,0.7,72,0.00,,,0.00,WUHU216HW,2013-03-23 07:45:00,
2013-03-23 02:50:00,30.9,23.0,29.77,NNW,338,0.0,0.4,72,0.00,,,0.00,WUHU216HW,2013-03-23 07:50:00,
2013-03-23 02:55:00,30.3,22.4,29.76,NNW,338,0.0,0.4,72,0.00,,,0.00,WUHU216HW,2013-03-23 07:55:00,
2013-03-23 03:00:00,29.8,21.9,29.76,North,0,0.0,0.4,72,0.00,,,0.00,WUHU216HW,2013-03-23 08:00:00,
2013-03-23 03:05:00,29.3,21.5,29.76,North,0,0.0,0.0,72,0.00,,,0.00,WUHU216HW,2013-03-23 08:05:00,
2013-03-23 03:10:00,28.5,21.0,29.76,North,0,0.0,0.0,73,0.00,,,0.00,WUHU216HW,2013-03-23 08:10:00,
2013-03-23 03:15:00,28.0,20.5,29.76,North,0,0.0,0.0,73,0.00,,,0.00,WUHU216HW,2013-03-23 08:15:00,
2013-03-23 03:20:00,27.5,20.0,29.76,North,0,0.0,0.0,73,0.00,,,0.00,WUHU216HW,2013-03-23 08:20:00,
2013-03-23 03:25:00,26.8,19.4,29.76,North,0,0.0,0.0,73,0.00,,,0.00,WUHU216HW,2013-03-23 08:25:00,
2013-03-23 03:30:00,26.8,20.0,29.76,North,0,0.0,0.0,75,0.00,,,0.00,WUHU216HW,2013-03-23 08:30:00,
2013-03-23 03:35:00,26.8,20.3,29.77,North,0,0.0,0.0,76,0.00,,,0.00,WUHU216HW,2013-03-23 08:35:00,
2013-03-23 03:40:00,26.8,20.3,29.77,North,0,0.0,0.0,76,0.00,,,0.00,WUHU216HW,2013-03-23 08:40:00,
2013-03-23 03:45:00,27.2,20.7,29.76,North,0,0.0,0.0,76,0.00,,,0.00,WUHU216HW,2013-03-23 08:45:00,
2013-03-23 03:50:00,27.4,21.2,29.76,North,0,0.0,0.0,77,0.00,,,0.00,WUHU216HW,2013-03-23 08:50:00,
2013-03-23 03:55:00,27.2,20.7,29.76,North,0,0.0,0.0,76,0.00,,,0.00,WUHU216HW,2013-03-23 08:55:00,
2013-03-23 04:00:00,27.2,20.7,29.76,North,0,0.0,0.0,76,0.00,,,0.00,WUHU216HW,2013-03-23 09:00:00,
2013-03-23 04:05:00,27.1,20.6,29.76,North,0,0.0,0.0,76,0.00,,,0.00,WUHU216HW,2013-03-23 09:05:00,
2013-03-23 04:10:00,27.3,21.1,29.76,NNE,23,0.2,0.2,77,0.00,,,0.00,WUHU216HW,2013-03-23 09:10:00,
2013-03-23 04:15:00,27.6,21.4,29.76,NNE,23,0.0,0.2,77,0.00,,,0.00,WUHU216HW,2013-03-23 09:15:00,
2013-03-23 04:20:00,27.4,21.5,29.76,ESE,113,0.0,0.2,78,0.00,,,0.00,WUHU216HW,2013-03-23 09:20:00,
2013-03-23 04:25:00,27.1,20.9,29.75,NNE,23,0.0,0.0,77,0.00,,,0.00,WUHU216HW,2013-03-23 09:25:00,
2013-03-23 04:30:00,26.9,20.7,29.75,NNE,23,0.0,0.0,77,0.00,,,0.00,WUHU216HW,2013-03-23 09:30:00,
2013-03-23 04:35:00,26.3,20.2,29.76,NNE,23,0.0,0.0,77,0.00,,,0.00,WUHU216HW,2013-03-23 09:35:00,
2013-03-23 04:40:00,25.5,19.4,29.76,NNE,23,0.0,0.0,77,0.00,,,0.00,WUHU216HW,2013-03-23 09:40:00,
2013-03-23 04:45:00,25.2,19.1,29.76,NNE,23,0.0,0.0,77,0.00,,,0.00,WUHU216HW,2013-03-23 09:45:00,
2013-03-23 04:50:00,24.8,18.9,29.76,NNE,23,0.0,0.0,78,0.00,,,0.00,WUHU216HW,2013-03-23 09:50:00,
2013-03-23 04:55:00,24.5,18.6,29.77,NNE,23,0.0,0.0,78,0.00,,,0.00,WUHU216HW,2013-03-23 09:55:00,
2013-03-23 05:00:00,24.0,18.2,29.78,NNE,23,0.0,0.0,78,0.00,,,0.00,WUHU216HW,2013-03-23 10:00:00,
2013-03-23 05:05:00,24.0,18.5,29.78,NE,45,0.0,0.0,79,0.00,,,0.00,WUHU216HW,2013-03-23 10:05:00,
2013-03-23 05:10:00,24.5,19.5,29.77,East,90,0.0,0.0,81,0.00,,,0.00,WUHU216HW,2013-03-23 10:10:00,
2013-03-23 05:15:00,24.7,20.0,29.77,NNE,23,0.0,0.0,82,0.00,,,0.00,WUHU216HW,2013-03-23 10:15:00,
2013-03-23 05:20:00,24.6,19.7,29.77,North,0,0.0,0.0,81,0.00,,,0.00,WUHU216HW,2013-03-23 10:20:00,
2013-03-23 05:25:00,24.6,19.6,29.78,North,0,0.0,0.0,81,0.00,,,0.00,WUHU216HW,2013-03-23 10:25:00,
2013-03-23 05:30:00,24.8,19.8,29.78,North,0,0.2,0.2,81,0.00,,,0.00,WUHU216HW,2013-03-23 10:30:00,
2013-03-23 05:35:00,25.3,20.6,29.77,North,9,0.3,0.4,82,0.00,,,0.00,WUHU216HW,2013-03-23 10:35:00,
2013-03-23 05:40:00,25.6,20.9,29.77,North,0,0.0,0.4,82,0.00,,,0.00,WUHU216HW,2013-03-23 10:40:00,
2013-03-23 05:45:00,25.6,20.9,29.78,WNW,293,0.0,0.2,82,0.00,,,0.00,WUHU216HW,2013-03-23 10:45:00,
2013-03-23 05:50:00,25.6,20.6,29.78,WNW,293,0.0,0.0,81,0.00,,,0.00,WUHU216HW,2013-03-23 10:50:00,
2013-03-23 05:55:00,25.6,20.6,29.78,North,0,0.4,0.4,81,0.00,,,0.00,WUHU216HW,2013-03-23 10:55:00,
2013-03-23 06:00:00,25.9,21.2,29.78,North,0,0.3,1.1,82,0.00,,,0.00,WUHU216HW,2013-03-23 11:00:00,
2013-03-23 06:05:00,25.9,21.2,29.79,NNW,338,0.0,1.1,82,0.00,,,0.00,WUHU216HW,2013-03-23 11:05:00,
2013-03-23 06:10:00,26.2,21.5,29.79,North,0,0.4,0.4,82,0.00,,,0.00,WUHU216HW,2013-03-23 11:10:00,
2013-03-23 06:15:00,26.6,22.4,29.79,NNE,23,0.9,0.9,84,0.00,,,0.00,WUHU216HW,2013-03-23 11:15:00,
2013-03-23 06:20:00,26.8,22.6,29.79,NNE,23,0.2,1.1,84,0.00,,,0.00,WUHU216HW,2013-03-23 11:20:00,
2013-03-23 06:25:00,27.2,23.0,29.79,NW,315,1.1,1.8,84,0.00,,,0.00,WUHU216HW,2013-03-23 11:25:00,
2013-03-23 06:30:00,27.6,23.4,29.79,NNE,33,0.5,1.8,84,0.00,,,0.00,WUHU216HW,2013-03-23 11:30:00,
2013-03-23 06:35:00,27.6,23.4,29.79,NNW,338,0.2,1.1,84,0.00,,,0.00,WUHU216HW,2013-03-23 11:35:00,
2013-03-23 06:40:00,27.6,23.1,29.79,North,351,0.3,0.4,83,0.00,,,0.00,WUHU216HW,2013-03-23 11:40:00,
2013-03-23 06:45:00,27.5,23.0,29.79,NNW,338,0.0,0.4,83,0.00,,,0.00,WUHU216HW,2013-03-23 11:45:00,
2013-03-23 06:50:00,27.3,22.8,29.79,ENE,68,0.2,0.4,83,0.00,,,0.00,WUHU216HW,2013-03-23 11:50:00,
2013-03-23 06:55:00,27.2,22.8,29.78,North,0,0.0,2.5,83,0.00,,,0.00,WUHU216HW,2013-03-23 11:55:00,
2013-03-23 07:00:00,26.8,22.1,29.79,NNW,338,0.0,2.5,82,0.00,,,0.00,WUHU216HW,2013-03-23 12:00:00,
2013-03-23 07:05:00,26.3,21.6,29.79,NNW,338,0.0,0.0,82,0.00,,,0.00,WUHU216HW,2013-03-23 12:05:00,
2013-03-23 07:10:00,25.9,20.9,29.79,NNW,338,0.0,0.0,81,0.00,,,0.00,WUHU216HW,2013-03-23 12:10:00,
2013-03-23 07:15:00,25.9,20.9,29.79,NNW,338,0.0,0.0,81,0.00,,,0.00,WUHU216HW,2013-03-23 12:15:00,
2013-03-23 07:20:00,25.9,20.9,29.79,NNW,338,0.0,0.0,81,0.00,,,0.00,WUHU216HW,2013-03-23 12:20:00,
2013-03-23 07:26:00,25.9,21.2,29.79,NNW,338,0.2,0.2,82,0.00,,,0.00,WUHU216HW,2013-03-23 12:26:00,
2013-03-23 07:31:00,26.3,21.9,29.79,NNE,31,0.5,1.1,83,0.00,,,0.00,WUHU216HW,2013-03-23 12:31:00,
2013-03-23 07:37:00,26.6,22.1,29.80,NNW,338,0.4,1.1,83,0.00,,,0.00,WUHU216HW,2013-03-23 12:37:00,
2013-03-23 07:42:00,26.6,22.1,29.81,NNW,338,0.0,0.4,83,0.00,,,0.00,WUHU216HW,2013-03-23 12:42:00,
2013-03-23 07:47:00,26.8,22.3,29.81,NNW,344,0.3,0.4,83,0.00,,,0.00,WUHU216HW,2013-03-23 12:47:00,
2013-03-23 07:52:00,27.2,22.7,29.81,NW,322,0.4,0.7,83,0.00,,,0.00,WUHU216HW,2013-03-23 12:52:00,
2013-03-23 07:57:00,27.4,22.9,29.80,NNW,338,0.4,0.9,83,0.00,,,0.00,WUHU216HW,2013-03-23 12:57:00,
2013-03-23 08:02:00,27.7,23.2,29.81,North,0,0.3,0.9,83,0.00,,,0.00,WUHU216HW,2013-03-23 13:02:00,
2013-03-23 08:07:00,27.7,23.2,29.81,West,270,0.0,0.4,83,0.00,,,0.00,WUHU216HW,2013-03-23 13:07:00,
2013-03-23 08:12:00,28.1,23.3,29.81,NW,321,0.3,0.4,82,0.00,,,0.00,WUHU216HW,2013-03-23 13:12:00,
2013-03-23 08:17:00,28.4,23.6,29.80,NNW,338,1.3,1.6,82,0.00,,,0.00,WUHU216HW,2013-03-23 13:17:00,
2013-03-23 08:22:00,29.0,23.6,29.80,NNE,23,2.5,3.1,80,0.00,,,0.00,WUHU216HW,2013-03-23 13:22:00,
2013-03-23 08:27:00,29.5,23.8,29.80,NNE,23,0.7,3.1,79,0.00,,,0.00,WUHU216HW,2013-03-23 13:27:00,
2013-03-23 08:32:00,30.1,24.1,29.80,NE,42,2.3,3.4,78,0.00,,,0.00,WUHU216HW,2013-03-23 13:32:00,
2013-03-23 08:37:00,30.4,24.1,29.81,NE,35,0.7,3.4,77,0.00,,,0.00,WUHU216HW,2013-03-23 13:37:00,
2013-03-23 08:42:00,30.6,24.0,29.81,NNE,27,2.8,3.4,76,0.00,,,0.00,WUHU216HW,2013-03-23 13:42:00,
2013-03-23 08:47:00,31.3,24.1,29.81,ENE,68,3.4,3.4,74,0.00,,,0.00,WUHU216HW,2013-03-23 13:47:00,
2013-03-23 08:52:00,31.5,23.9,29.81,NE,38,1.7,3.4,73,0.00,,,0.00,WUHU216HW,2013-03-23 13:52:00,
2013-03-23 08:57:00,32.0,24.1,29.81,NNE,30,1.4,3.4,72,0.00,,,0.00,WUHU216HW,2013-03-23 13:57:00,
2013-03-23 09:02:00,33.5,24.9,29.81,NE,35,2.7,4.3,70,0.00,,,0.00,WUHU216HW,2013-03-23 14:02:00,
2013-03-23 09:07:00,34.4,25.0,29.81,East,90,2.1,4.3,68,0.00,,,0.00,WUHU216HW,2013-03-23 14:07:00,
2013-03-23 09:12:00,35.3,25.2,29.82,NE,47,1.5,3.8,66,0.00,,,0.00,WUHU216HW,2013-03-23 14:12:00,
2013-03-23 09:17:00,35.6,24.3,29.82,North,0,4.0,4.7,63,0.00,,,0.00,WUHU216HW,2013-03-23 14:17:00,
2013-03-23 09:22:00,36.0,24.7,29.81,NNE,23,4.0,4.7,63,0.00,,,0.00,WUHU216HW,2013-03-23 14:22:00,
2013-03-23 09:28:00,36.5,24.4,29.81,NE,47,3.3,5.4,61,0.00,,,0.00,WUHU216HW,2013-03-23 14:28:00,
2013-03-23 09:33:00,36.7,24.6,29.81,North,351,2.3,5.4,61,0.00,,,0.00,WUHU216HW,2013-03-23 14:33:00,
2013-03-23 09:38:00,37.1,24.6,29.81,ENE,77,2.2,5.4,60,0.00,,,0.00,WUHU216HW,2013-03-23 14:38:00,
2013-03-23 09:43:00,37.8,24.4,29.81,NNE,29,3.7,5.4,58,0.00,,,0.00,WUHU216HW,2013-03-23 14:43:00,
2013-03-23 09:47:00,38.5,24.7,29.81,ENE,68,3.4,4.7,57,0.00,,,0.00,WUHU216HW,2013-03-23 14:47:00,
2013-03-23 09:53:00,38.9,24.6,29.81,NNE,23,3.1,3.6,56,0.00,,,0.00,WUHU216HW,2013-03-23 14:53:00,
2013-03-23 09:57:00,39.6,25.3,29.81,North,359,1.4,4.5,56,0.00,,,0.00,WUHU216HW,2013-03-23 14:57:00,
2013-03-23 10:03:00,40.1,24.8,29.81,NNE,28,2.4,4.5,54,0.00,,,0.00,WUHU216HW,2013-03-23 15:03:00,
2013-03-23 10:08:00,41.2,24.4,29.81,ESE,103,2.0,4.0,51,0.00,,,0.00,WUHU216HW,2013-03-23 15:08:00,
2013-03-23 10:13:00,40.7,23.5,29.80,ENE,65,1.9,4.3,50,0.00,,,0.00,WUHU216HW,2013-03-23 15:13:00,
2013-03-23 10:18:00,41.8,25.0,29.81,ESE,113,4.0,4.3,51,0.00,,,0.00,WUHU216HW,2013-03-23 15:18:00,
2013-03-23 10:23:00,41.2,23.5,29.81,WNW,293,2.7,4.3,49,0.00,,,0.00,WUHU216HW,2013-03-23 15:23:00,
2013-03-23 10:28:00,41.2,24.0,29.81,NNE,16,1.5,4.3,50,0.00,,,0.00,WUHU216HW,2013-03-23 15:28:00,
2013-03-23 10:33:00,42.1,23.8,29.80,East,90,3.1,4.3,48,0.00,,,0.00,WUHU216HW,2013-03-23 15:33:00,
2013-03-23 10:38:00,42.1,24.8,29.80,NNE,27,0.8,3.4,50,0.00,,,0.00,WUHU216HW,2013-03-23 15:38:00,
2013-03-23 10:43:00,42.5,23.6,29.80,NNW,338,3.0,4.0,47,0.00,,,0.00,WUHU216HW,2013-03-23 15:43:00,
2013-03-23 10:48:00,41.9,23.6,29.80,NNE,23,3.4,6.0,48,0.00,,,0.00,WUHU216HW,2013-03-23 15:48:00,
2013-03-23 10:53:00,41.6,23.3,29.80,NE,45,2.5,6.0,48,0.00,,,0.00,WUHU216HW,2013-03-23 15:53:00,
2013-03-23 10:58:00,42.1,23.8,29.80,NNE,23,3.4,5.6,48,0.00,,,0.00,WUHU216HW,2013-03-23 15:58:00,
2013-03-23 11:03:00,42.5,23.6,29.80,NE,50,4.1,6.3,47,0.00,,,0.00,WUHU216HW,2013-03-23 16:03:00,
2013-03-23 11:08:00,42.5,24.2,29.80,SE,135,2.2,6.3,48,0.00,,,0.00,WUHU216HW,2013-03-23 16:08:00,
2013-03-23 11:13:00,42.7,22.8,29.80,North,0,3.8,5.1,45,0.00,,,0.00,WUHU216HW,2013-03-23 16:13:00,
2013-03-23 11:18:00,42.8,23.4,29.80,NE,48,2.8,4.7,46,0.00,,,0.00,WUHU216HW,2013-03-23 16:18:00,
2013-03-23 11:23:00,42.8,22.3,29.79,NNE,23,4.9,7.4,44,0.00,,,0.00,WUHU216HW,2013-03-23 16:23:00,
2013-03-23 11:28:00,42.5,23.1,29.80,ENE,68,3.6,7.4,46,0.00,,,0.00,WUHU216HW,2013-03-23 16:28:00,
2013-03-23 11:33:00,42.8,23.9,29.80,NE,45,2.2,4.9,47,0.00,,,0.00,WUHU216HW,2013-03-23 16:33:00,
2013-03-23 11:38:00,43.7,23.1,29.80,North,6,3.1,5.1,44,0.00,,,0.00,WUHU216HW,2013-03-23 16:38:00,
2013-03-23 11:43:00,43.9,22.7,29.80,NE,54,3.4,5.4,43,0.00,,,0.00,WUHU216HW,2013-03-23 16:43:00,
2013-03-23 11:48:00,43.6,22.5,29.80,NE,40,2.5,5.4,43,0.00,,,0.00,WUHU216HW,2013-03-23 16:48:00,
2013-03-23 11:53:00,43.7,22.6,29.80,NNE,28,3.0,5.8,43,0.00,,,0.00,WUHU216HW,2013-03-23 16:53:00,
2013-03-23 11:58:00,43.9,23.3,29.80,SE,135,1.6,5.8,44,0.00,,,0.00,WUHU216HW,2013-03-23 16:58:00,
2013-03-23 12:03:00,44.3,23.7,29.80,NE,45,2.9,5.1,44,0.00,,,0.00,WUHU216HW,2013-03-23 17:03:00,
2013-03-23 12:08:00,43.6,23.0,29.80,NNW,338,3.6,4.7,44,0.00,,,0.00,WUHU216HW,2013-03-23 17:08:00,
2013-03-23 12:13:00,42.7,22.8,29.80,ESE,117,2.0,4.7,45,0.00,,,0.00,WUHU216HW,2013-03-23 17:13:00,
2013-03-23 12:18:00,43.2,23.8,29.80,East,81,0.9,4.5,46,0.00,,,0.00,WUHU216HW,2013-03-23 17:18:00,
2013-03-23 12:23:00,43.2,22.7,29.80,ENE,68,6.3,6.5,44,0.00,,,0.00,WUHU216HW,2013-03-23 17:23:00,
2013-03-23 12:28:00,43.6,23.0,29.81,NNE,15,2.4,6.5,44,0.00,,,0.00,WUHU216HW,2013-03-23 17:28:00,
2013-03-23 12:33:00,43.1,22.6,29.81,ENE,68,3.6,5.4,44,0.00,,,0.00,WUHU216HW,2013-03-23 17:33:00,
2013-03-23 12:38:00,43.5,23.4,29.80,East,90,4.5,6.3,45,0.00,,,0.00,WUHU216HW,2013-03-23 17:38:00,
2013-03-23 12:43:00,44.1,24.0,29.80,NNW,338,2.2,6.3,45,0.00,,,0.00,WUHU216HW,2013-03-23 17:43:00,
2013-03-23 12:48:00,44.5,23.8,29.80,NNE,23,4.7,4.7,44,0.00,,,0.00,WUHU216HW,2013-03-23 17:48:00,
2013-03-23 12:53:00,43.9,22.2,29.80,South,169,2.3,5.6,42,0.00,,,0.00,WUHU216HW,2013-03-23 17:53:00,
2013-03-23 12:58:00,43.6,22.5,29.79,NNE,23,2.9,5.6,43,0.00,,,0.00,WUHU216HW,2013-03-23 17:58:00,
2013-03-23 13:03:00,44.4,23.2,29.79,ENE,68,3.4,4.3,43,0.00,,,0.00,WUHU216HW,2013-03-23 18:03:00,
2013-03-23 13:08:00,44.3,22.6,29.79,ESE,107,1.6,3.4,42,0.00,,,0.00,WUHU216HW,2013-03-23 18:08:00,
2013-03-23 13:13:00,44.8,23.5,29.79,West,270,1.6,3.8,43,0.00,,,0.00,WUHU216HW,2013-03-23 18:13:00,
2013-03-23 13:18:00,45.6,24.3,29.79,NE,36,2.1,4.0,43,0.00,,,0.00,WUHU216HW,2013-03-23 18:18:00,
2013-03-23 13:23:00,46.3,23.8,29.79,NNE,23,4.3,5.6,41,0.00,,,0.00,WUHU216HW,2013-03-23 18:23:00,
2013-03-23 13:28:00,45.4,23.0,29.79,SE,130,1.2,5.6,41,0.00,,,0.00,WUHU216HW,2013-03-23 18:28:00,
2013-03-23 13:33:00,46.0,23.4,29.80,North,0,2.9,4.7,41,0.00,,,0.00,WUHU216HW,2013-03-23 18:33:00,
2013-03-23 13:38:00,45.7,22.6,29.79,NNE,30,3.9,4.9,40,0.00,,,0.00,WUHU216HW,2013-03-23 18:38:00,
2013-03-23 13:43:00,45.6,23.1,29.79,NNE,23,2.4,4.9,41,0.00,,,0.00,WUHU216HW,2013-03-23 18:43:00,
2013-03-23 13:48:00,45.9,22.8,29.79,NW,314,1.7,4.7,40,0.00,,,0.00,WUHU216HW,2013-03-23 18:48:00,
2013-03-23 13:53:00,46.6,24.0,29.79,East,90,1.8,3.4,41,0.00,,,0.00,WUHU216HW,2013-03-23 18:53:00,
2013-03-23 13:58:00,48.6,25.2,29.79,East,84,1.3,3.4,40,0.00,,,0.00,WUHU216HW,2013-03-23 18:58:00,
2013-03-23 14:03:00,47.7,23.8,29.78,North,0,5.4,5.6,39,0.00,,,0.00,WUHU216HW,2013-03-23 19:03:00,
2013-03-23 14:08:00,47.5,24.2,29.78,ESE,110,1.3,5.6,40,0.00,,,0.00,WUHU216HW,2013-03-23 19:08:00,
2013-03-23 14:13:00,48.6,25.3,29.78,NE,42,1.6,5.4,40,0.00,,,0.00,WUHU216HW,2013-03-23 19:13:00,
2013-03-23 14:18:00,47.4,23.5,29.78,NNE,22,1.7,5.1,39,0.00,,,0.00,WUHU216HW,2013-03-23 19:18:00,
2013-03-23 14:23:00,46.9,23.1,29.78,North,0,4.0,6.3,39,0.00,,,0.00,WUHU216HW,2013-03-23 19:23:00,
2013-03-23 14:28:00,46.5,22.7,29.77,NW,315,1.6,6.3,39,0.00,,,0.00,WUHU216HW,2013-03-23 19:28:00,
2013-03-23 14:33:00,46.4,22.7,29.77,NE,45,3.6,6.0,39,0.00,,,0.00,WUHU216HW,2013-03-23 19:33:00,
2013-03-23 14:38:00,47.0,23.2,29.77,NNE,20,3.7,6.0,39,0.00,,,0.00,WUHU216HW,2013-03-23 19:38:00,
2013-03-23 14:43:00,46.1,22.3,29.76,ENE,68,3.4,5.8,39,0.00,,,0.00,WUHU216HW,2013-03-23 19:43:00,
2013-03-23 14:48:00,46.0,22.3,29.76,North,0,2.5,5.4,39,0.00,,,0.00,WUHU216HW,2013-03-23 19:48:00,
2013-03-23 14:54:00,46.2,22.5,29.76,SE,135,3.1,5.4,39,0.00,,,0.00,WUHU216HW,2013-03-23 19:54:00,
2013-03-23 14:59:00,45.3,21.6,29.75,NNE,17,2.8,7.2,39,0.00,,,0.00,WUHU216HW,2013-03-23 19:59:00,
2013-03-23 15:04:00,45.6,22.5,29.75,NE,45,2.5,7.2,40,0.00,,,0.00,WUHU216HW,2013-03-23 20:04:00,
2013-03-23 15:08:00,47.1,23.3,29.75,North,0,2.2,4.7,39,0.00,,,0.00,WUHU216HW,2013-03-23 20:08:00,
2013-03-23 15:14:00,46.4,22.0,29.74,NNE,28,3.5,6.5,38,0.00,,,0.00,WUHU216HW,2013-03-23 20:14:00,
2013-03-23 15:19:00,46.8,23.0,29.74,North,0,3.4,8.7,39,0.00,,,0.00,WUHU216HW,2013-03-23 20:19:00,
2013-03-23 15:24:00,46.6,22.2,29.73,NE,45,4.9,8.7,38,0.00,,,0.00,WUHU216HW,2013-03-23 20:24:00,
2013-03-23 15:29:00,45.3,21.6,29.73,NE,39,3.5,4.9,39,0.00,,,0.00,WUHU216HW,2013-03-23 20:29:00,
2013-03-23 15:34:00,45.3,21.6,29.72,North,0,3.4,4.9,39,0.00,,,0.00,WUHU216HW,2013-03-23 20:34:00,
2013-03-23 15:39:00,45.0,20.1,29.73,ENE,59,4.6,5.8,37,0.00,,,0.00,WUHU216HW,2013-03-23 20:39:00,
2013-03-23 15:44:00,44.4,20.2,29.72,NNE,28,4.6,5.8,38,0.00,,,0.00,WUHU216HW,2013-03-23 20:44:00,
2013-03-23 15:49:00,45.3,21.7,29.72,NNE,23,2.5,5.4,39,0.00,,,0.00,WUHU216HW,2013-03-23 20:49:00,
2013-03-23 15:54:00,46.1,22.4,29.71,NE,45,3.9,5.4,39,0.00,,,0.00,WUHU216HW,2013-03-23 20:54:00,
2013-03-23 15:59:00,46.3,21.9,29.71,North,349,2.2,5.4,38,0.00,,,0.00,WUHU216HW,2013-03-23 20:59:00,
2013-03-23 16:04:00,46.0,21.6,29.71,North,7,5.3,5.4,38,0.00,,,0.00,WUHU216HW,2013-03-23 21:04:00,
2013-03-23 16:09:00,44.5,20.9,29.71,NNW,338,4.9,5.6,39,0.00,,,0.00,WUHU216HW,2013-03-23 21:09:00,
2013-03-23 16:14:00,43.3,19.9,29.71,NNE,23,4.0,6.9,39,0.00,,,0.00,WUHU216HW,2013-03-23 21:14:00,
2013-03-23 16:19:00,43.0,20.1,29.71,NNE,17,3.1,7.6,40,0.00,,,0.00,WUHU216HW,2013-03-23 21:19:00,
2013-03-23 16:24:00,42.7,19.9,29.71,NNE,23,1.8,7.6,40,0.00,,,0.00,WUHU216HW,2013-03-23 21:24:00,
2013-03-23 16:29:00,42.5,20.4,29.71,North,0,4.0,6.3,41,0.00,,,0.00,WUHU216HW,2013-03-23 21:29:00,
2013-03-23 16:34:00,42.8,20.6,29.70,North,11,3.0,7.4,41,0.00,,,0.00,WUHU216HW,2013-03-23 21:34:00,
2013-03-23 16:39:00,43.8,21.5,29.71,North,353,1.2,7.4,41,0.00,,,0.00,WUHU216HW,2013-03-23 21:39:00,
2013-03-23 16:44:00,44.8,21.2,29.70,NNE,14,3.3,6.9,39,0.00,,,0.00,WUHU216HW,2013-03-23 21:44:00,
2013-03-23 16:49:00,44.1,20.6,29.71,NNE,31,5.0,6.3,39,0.00,,,0.00,WUHU216HW,2013-03-23 21:49:00,
2013-03-23 16:54:00,43.5,20.6,29.70,NE,45,4.9,6.3,40,0.00,,,0.00,WUHU216HW,2013-03-23 21:54:00,
2013-03-23 16:59:00,43.0,20.8,29.70,NNE,16,4.1,7.2,41,0.00,,,0.00,WUHU216HW,2013-03-23 21:59:00,
2013-03-23 17:04:00,43.4,21.1,29.70,NW,315,7.4,7.6,41,0.00,,,0.00,WUHU216HW,2013-03-23 22:04:00,
2013-03-23 17:09:00,43.3,21.0,29.70,NNE,23,4.9,7.6,41,0.00,,,0.00,WUHU216HW,2013-03-23 22:09:00,
2013-03-23 17:14:00,44.2,22.5,29.70,North,3,3.1,7.4,42,0.00,,,0.00,WUHU216HW,2013-03-23 22:14:00,
2013-03-23 17:19:00,44.2,22.4,29.70,NNE,25,3.0,4.9,42,0.00,,,0.00,WUHU216HW,2013-03-23 22:19:00,
2013-03-23 17:24:00,43.5,21.8,29.70,NNE,23,6.7,6.9,42,0.00,,,0.00,WUHU216HW,2013-03-23 22:24:00,
2013-03-23 17:29:00,42.9,22.3,29.70,North,0,3.4,6.9,44,0.00,,,0.00,WUHU216HW,2013-03-23 22:29:00,
2013-03-23 17:34:00,42.2,21.8,29.70,NNW,338,1.9,7.8,44,0.00,,,0.00,WUHU216HW,2013-03-23 22:34:00,
2013-03-23 17:39:00,41.9,22.0,29.71,East,96,4.6,7.8,45,0.00,,,0.00,WUHU216HW,2013-03-23 22:39:00,
2013-03-23 17:44:00,42.0,22.6,29.71,NNE,20,2.8,5.1,46,0.00,,,0.00,WUHU216HW,2013-03-23 22:44:00,
2013-03-23 17:49:00,42.1,22.7,29.70,NE,45,6.3,7.6,46,0.00,,,0.00,WUHU216HW,2013-03-23 22:49:00,
2013-03-23 17:54:00,41.6,22.8,29.70,NE,45,4.0,7.6,47,0.00,,,0.00,WUHU216HW,2013-03-23 22:54:00,
2013-03-23 17:59:00,41.7,22.9,29.70,ENE,68,6.3,6.9,47,0.00,,,0.00,WUHU216HW,2013-03-23 22:59:00,
2013-03-23 18:04:00,41.4,23.1,29.70,NNE,31,4.0,6.3,48,0.00,,,0.00,WUHU216HW,2013-03-23 23:04:00,
2013-03-23 18:09:00,41.4,23.6,29.70,North,0,3.6,6.3,49,0.00,,,0.00,WUHU216HW,2013-03-23 23:09:00,
2013-03-23 18:14:00,41.3,23.5,29.70,North,10,3.8,6.3,49,0.00,,,0.00,WUHU216HW,2013-03-23 23:14:00,
2013-03-23 18:19:00,41.2,23.9,29.70,North,0,4.0,6.3,50,0.00,,,0.00,WUHU216HW,2013-03-23 23:19:00,
2013-03-23 18:24:00,41.0,23.8,29.69,NNE,23,5.4,7.4,50,0.00,,,0.00,WUHU216HW,2013-03-23 23:24:00,
2013-03-23 18:29:00,40.9,23.7,29.69,NNW,338,4.0,7.4,50,0.00,,,0.00,WUHU216HW,2013-03-23 23:29:00,
2013-03-23 18:34:00,40.7,23.5,29.70,NE,36,4.1,8.3,50,0.00,,,0.00,WUHU216HW,2013-03-23 23:34:00,
2013-03-23 18:39:00,40.5,23.3,29.70,ENE,68,3.6,8.3,50,0.00,,,0.00,WUHU216HW,2013-03-23 23:39:00,
2013-03-23 18:44:00,40.3,23.1,29.70,ENE,68,2.5,4.0,50,0.00,,,0.00,WUHU216HW,2013-03-23 23:44:00,
2013-03-23 18:49:00,40.1,22.9,29.71,North,0,3.8,5.4,50,0.00,,,0.00,WUHU216HW,2013-03-23 23:49:00,
2013-03-23 18:54:00,40.0,23.3,29.71,NNE,19,2.6,5.4,51,0.00,,,0.00,WUHU216HW,2013-03-23 23:54:00,
2013-03-23 18:59:00,39.8,23.6,29.71,NE,36,3.9,6.9,52,0.00,,,0.00,WUHU216HW,2013-03-23 23:59:00,
2013-03-23 19:04:00,39.4,23.3,29.71,NE,45,2.5,6.9,52,0.00,,,0.00,WUHU216HW,2013-03-24 00:04:00,
2013-03-23 19:09:00,39.2,24.0,29.71,NNE,23,2.9,6.3,54,0.00,,,0.00,WUHU216HW,2013-03-24 00:09:00,
2013-03-23 19:14:00,38.9,24.2,29.71,NE,37,2.6,5.4,55,0.00,,,0.00,WUHU216HW,2013-03-24 00:14:00,
2013-03-23 19:19:00,38.7,24.0,29.72,North,0,4.7,5.4,55,0.00,,,0.00,WUHU216HW,2013-03-24 00:19:00,
2013-03-23 19:24:00,38.5,24.2,29.72,NNE,23,3.6,5.1,56,0.00,,,0.00,WUHU216HW,2013-03-24 00:24:00,
2013-03-23 19:29:00,38.5,24.2,29.72,NNE,24,2.3,6.3,56,0.00,,,0.00,WUHU216HW,2013-03-24 00:29:00,
2013-03-23 19:34:00,38.3,24.5,29.72,NNE,23,2.9,6.3,57,0.00,,,0.00,WUHU216HW,2013-03-24 00:34:00,
2013-03-23 19:39:00,38.2,24.4,29.72,North,5,1.0,4.3,57,0.00,,,0.00,WUHU216HW,2013-03-24 00:39:00,
2013-03-23 19:44:00,38.2,24.4,29.72,NNE,23,3.6,3.6,57,0.00,,,0.00,WUHU216HW,2013-03-24 00:44:00,
2013-03-23 19:49:00,38.0,24.6,29.72,NE,37,2.0,3.6,58,0.00,,,0.00,WUHU216HW,2013-03-24 00:49:00,
2013-03-23 19:54:00,37.8,24.4,29.72,North,0,3.4,3.6,58,0.00,,,0.00,WUHU216HW,2013-03-24 00:54:00,
2013-03-23 19:59:00,37.8,24.8,29.72,NNW,338,1.8,4.5,59,0.00,,,0.00,WUHU216HW,2013-03-24 00:59:00,
2013-03-23 20:04:00,37.6,24.7,29.72,NNE,32,2.3,5.6,59,0.00,,,0.00,WUHU216HW,2013-03-24 01:04:00,
2013-03-23 20:09:00,37.4,24.9,29.72,NNE,29,2.7,5.6,60,0.00,,,0.00,WUHU216HW,2013-03-24 01:09:00,
2013-03-23 20:14:00,37.3,24.8,29.72,North,0,3.4,4.0,60,0.00,,,0.00,WUHU216HW,2013-03-24 01:14:00,
2013-03-23 20:19:00,37.1,25.0,29.72,NNE,24,2.7,4.0,61,0.00,,,0.00,WUHU216HW,2013-03-24 01:19:00,
2013-03-23 20:24:00,37.1,25.0,29.72,NNE,23,1.8,4.5,61,0.00,,,0.00,WUHU216HW,2013-03-24 01:24:00,
2013-03-23 20:29:00,36.9,24.8,29.72,NNE,23,1.8,4.5,61,0.00,,,0.00,WUHU216HW,2013-03-24 01:29:00,
2013-03-23 20:34:00,36.7,24.6,29.72,NE,48,1.9,4.7,61,0.00,,,0.00,WUHU216HW,2013-03-24 01:34:00,
2013-03-23 20:39:00,36.7,24.6,29.72,North,1,1.2,4.7,61,0.00,,,0.00,WUHU216HW,2013-03-24 01:39:00,
2013-03-23 20:44:00,36.5,24.4,29.72,ENE,77,1.6,4.5,61,0.00,,,0.00,WUHU216HW,2013-03-24 01:44:00,
2013-03-23 20:49:00,36.4,24.3,29.73,NE,45,3.1,3.4,61,0.00,,,0.00,WUHU216HW,2013-03-24 01:49:00,
2013-03-23 20:54:00,36.4,24.3,29.73,North,4,2.0,3.4,61,0.00,,,0.00,WUHU216HW,2013-03-24 01:54:00,
2013-03-23 20:59:00,36.4,24.3,29.73,North,0,2.2,3.4,61,0.00,,,0.00,WUHU216HW,2013-03-24 01:59:00,
2013-03-23 21:04:00,36.2,24.1,29.73,NNE,23,2.7,3.4,61,0.00,,,0.00,WUHU216HW,2013-03-24 02:04:00,
2013-03-23 21:09:00,36.0,24.3,29.73,North,1,2.1,3.6,62,0.00,,,0.00,WUHU216HW,2013-03-24 02:09:00,
2013-03-23 21:14:00,35.8,24.5,29.73,NNE,24,3.5,4.0,63,0.00,,,0.00,WUHU216HW,2013-03-24 02:14:00,
2013-03-23 21:19:00,35.8,24.5,29.73,NE,35,3.8,6.0,63,0.00,,,0.00,WUHU216HW,2013-03-24 02:19:00,
2013-03-23 21:24:00,35.6,24.3,29.73,North,5,3.6,6.0,63,0.00,,,0.00,WUHU216HW,2013-03-24 02:24:00,
2013-03-23 21:29:00,35.6,24.3,29.73,NNE,23,3.8,4.3,63,0.00,,,0.00,WUHU216HW,2013-03-24 02:29:00,
2013-03-23 21:34:00,35.5,24.6,29.73,North,9,3.1,4.0,64,0.00,,,0.00,WUHU216HW,2013-03-24 02:34:00,
2013-03-23 21:39:00,35.5,24.6,29.73,NNE,23,6.3,6.3,64,0.00,,,0.00,WUHU216HW,2013-03-24 02:39:00,
2013-03-23 21:44:00,35.3,24.1,29.73,NE,36,1.7,6.3,63,0.00,,,0.00,WUHU216HW,2013-03-24 02:44:00,
2013-03-23 21:49:00,35.3,24.1,29.73,NNE,23,4.7,6.3,63,0.00,,,0.00,WUHU216HW,2013-03-24 02:49:00,
2013-03-23 21:54:00,35.1,24.3,29.73,NNE,23,2.5,5.4,64,0.00,,,0.00,WUHU216HW,2013-03-24 02:54:00,
2013-03-23 21:59:00,35.1,24.3,29.73,NE,49,1.3,4.7,64,0.00,,,0.00,WUHU216HW,2013-03-24 02:59:00,
2013-03-23 22:04:00,34.9,24.1,29.73,NNE,23,2.2,2.5,64,0.00,,,0.00,WUHU216HW,2013-03-24 03:04:00,
2013-03-23 22:09:00,35.0,24.1,29.73,NE,36,2.3,4.9,64,0.00,,,0.00,WUHU216HW,2013-03-24 03:09:00,
2013-03-23 22:14:00,35.0,24.1,29.73,North,4,0.7,4.9,64,0.00,,,0.00,WUHU216HW,2013-03-24 03:14:00,
2013-03-23 22:19:00,34.8,24.0,29.73,East,97,0.8,2.5,64,0.00,,,0.00,WUHU216HW,2013-03-24 03:19:00,
2013-03-23 22:24:00,34.7,23.9,29.73,NE,45,2.0,2.5,64,0.00,,,0.00,WUHU216HW,2013-03-24 03:24:00,
2013-03-23 22:29:00,34.6,24.1,29.73,NNE,31,1.1,2.0,65,0.00,,,0.00,WUHU216HW,2013-03-24 03:29:00,
2013-03-23 22:34:00,34.6,24.5,29.73,NNW,338,2.0,2.5,66,0.00,,,0.00,WUHU216HW,2013-03-24 03:34:00,
2013-03-23 22:39:00,34.6,24.5,29.73,North,349,0.6,3.1,66,0.00,,,0.00,WUHU216HW,2013-03-24 03:39:00,
2013-03-23 22:44:00,34.5,24.0,29.73,NE,45,2.5,3.1,65,0.00,,,0.00,WUHU216HW,2013-03-24 03:44:00,
2013-03-23 22:49:00,34.5,24.4,29.74,North,0,1.8,2.5,66,0.00,,,0.00,WUHU216HW,2013-03-24 03:49:00,
2013-03-23 22:54:00,34.5,24.1,29.73,NNW,338,0.4,2.5,65,0.00,,,0.00,WUHU216HW,2013-03-24 03:54:00,
2013-03-23 22:59:00,34.3,24.3,29.74,ENE,68,1.8,2.7,66,0.00,,,0.00,WUHU216HW,2013-03-24 03:59:00,
2013-03-23 23:00:00,34.5,24.5,29.73,NE,45,0.7,2.7,66,0.00,,,0.00,WUHU216HW,2013-03-24 04:00:00,
2013-03-23 23:05:00,34.4,24.7,29.73,North,351,0.3,2.7,67,0.00,,,0.00,WUHU216HW,2013-03-24 04:05:00,
2013-03-23 23:10:00,34.2,24.8,29.73,North,0,1.8,2.2,68,0.00,,,0.00,WUHU216HW,2013-03-24 04:10:00,
2013-03-23 23:15:00,34.2,24.9,29.73,NNE,12,1.0,2.5,68,0.00,,,0.00,WUHU216HW,2013-03-24 04:15:00,
2013-03-23 23:20:00,34.1,25.1,29.73,NNE,21,1.5,3.6,69,0.00,,,0.00,WUHU216HW,2013-03-24 04:20:00,
2013-03-23 23:25:00,34.2,25.5,29.73,NNE,30,3.0,4.5,70,0.00,,,0.00,WUHU216HW,2013-03-24 04:25:00,
2013-03-23 23:30:00,34.2,25.5,29.73,NNE,23,3.6,4.5,70,0.00,,,0.00,WUHU216HW,2013-03-24 04:30:00,
2013-03-23 23:35:00,34.2,25.2,29.72,NNE,16,3.6,6.0,69,0.00,,,0.00,WUHU216HW,2013-03-24 04:35:00,
2013-03-23 23:40:00,34.3,25.3,29.72,NNE,23,2.5,6.0,69,0.00,,,0.00,WUHU216HW,2013-03-24 04:40:00,
2013-03-23 23:45:00,34.4,25.4,29.72,NE,45,2.8,4.5,69,0.00,,,0.00,WUHU216HW,2013-03-24 04:45:00,
2013-03-23 23:50:00,34.4,25.0,29.71,North,0,7.6,7.6,68,0.00,,,0.00,WUHU216HW,2013-03-24 04:50:00,
2013-03-23 23:55:00,34.4,25.1,29.71,ENE,68,8.1,8.1,68,0.00,,,0.00,WUHU216HW,2013-03-24 04:55:00,